sensor_id;sensor_type;location;lat;lon;timestamp;P1;durP1;ratioP1;P2;durP2;ratioP2
18125;SDS011;53956;52.442;13.284;2022-12-07T00:00:34;17.70;;;11.10;;
18125;SDS011;53956;52.442;13.284;2022-12-07T00:03:01;18.10;;;11.10;;
18125;SDS011;53956;52.442;13.284;2022-12-07T00:05:29;16.77;;;11.00;;
18125;SDS011;53956;52.442;13.284;2022-12-07T00:07:55;17.00;;;11.13;;
18125;SDS011;53956;52.442;13.284;2022-12-07T00:10:22;17.00;;;11.40;;
18125;SDS011;53956;52.442;13.284;2022-12-07T00:12:49;18.00;;;11.70;;
18125;SDS011;53956;52.442;13.284;2022-12-07T00:15:17;16.90;;;11.40;;
18125;SDS011;53956;52.442;13.284;2022-12-07T00:17:44;17.23;;;10.83;;
18125;SDS011;53956;52.442;13.284;2022-12-07T00:20:10;18.03;;;11.60;;
18125;SDS011;53956;52.442;13.284;2022-12-07T00:22:37;17.87;;;11.27;;
18125;SDS011;53956;52.442;13.284;2022-12-07T00:25:04;14.63;;;10.23;;
18125;SDS011;53956;52.442;13.284;2022-12-07T00:27:31;17.80;;;10.87;;
18125;SDS011;53956;52.442;13.284;2022-12-07T00:29:57;16.37;;;11.17;;
18125;SDS011;53956;52.442;13.284;2022-12-07T00:32:25;14.67;;;10.20;;
18125;SDS011;53956;52.442;13.284;2022-12-07T00:34:52;15.30;;;9.47;;
18125;SDS011;53956;52.442;13.284;2022-12-07T00:37:19;14.87;;;9.83;;
18125;SDS011;53956;52.442;13.284;2022-12-07T00:39:45;13.77;;;9.90;;
18125;SDS011;53956;52.442;13.284;2022-12-07T00:42:12;15.33;;;10.17;;
18125;SDS011;53956;52.442;13.284;2022-12-07T00:44:39;13.80;;;9.97;;
18125;SDS011;53956;52.442;13.284;2022-12-07T00:47:05;14.07;;;9.30;;
18125;SDS011;53956;52.442;13.284;2022-12-07T00:49:33;13.10;;;9.80;;
18125;SDS011;53956;52.442;13.284;2022-12-07T00:52:00;12.60;;;8.57;;
18125;SDS011;53956;52.442;13.284;2022-12-07T00:54:27;12.90;;;9.33;;
18125;SDS011;53956;52.442;13.284;2022-12-07T00:56:53;12.90;;;9.10;;
18125;SDS011;53956;52.442;13.284;2022-12-07T00:59:20;12.87;;;9.40;;
18125;SDS011;53956;52.442;13.284;2022-12-07T01:01:47;11.30;;;8.47;;
18125;SDS011;53956;52.442;13.284;2022-12-07T01:04:13;11.50;;;8.67;;
18125;SDS011;53956;52.442;13.284;2022-12-07T01:06:41;11.30;;;8.70;;
18125;SDS011;53956;52.442;13.284;2022-12-07T01:09:08;10.30;;;8.00;;
18125;SDS011;53956;52.442;13.284;2022-12-07T01:11:34;11.13;;;7.87;;
18125;SDS011;53956;52.442;13.284;2022-12-07T01:14:01;9.90;;;7.23;;
18125;SDS011;53956;52.442;13.284;2022-12-07T01:16:29;10.93;;;7.70;;
18125;SDS011;53956;52.442;13.284;2022-12-07T01:18:57;11.23;;;7.90;;
18125;SDS011;53956;52.442;13.284;2022-12-07T01:21:25;9.67;;;7.10;;
18125;SDS011;53956;52.442;13.284;2022-12-07T01:23:56;9.13;;;6.93;;
18125;SDS011;53956;52.442;13.284;2022-12-07T01:26:24;10.43;;;7.83;;
18125;SDS011;53956;52.442;13.284;2022-12-07T01:28:51;10.63;;;7.13;;
18125;SDS011;53956;52.442;13.284;2022-12-07T01:31:20;10.20;;;7.90;;
18125;SDS011;53956;52.442;13.284;2022-12-07T01:33:49;9.63;;;7.53;;
18125;SDS011;53956;52.442;13.284;2022-12-07T01:36:18;9.53;;;7.60;;
18125;SDS011;53956;52.442;13.284;2022-12-07T01:38:47;11.10;;;8.10;;
18125;SDS011;53956;52.442;13.284;2022-12-07T01:41:18;10.40;;;7.67;;
18125;SDS011;53956;52.442;13.284;2022-12-07T01:46:49;11.03;;;7.90;;
18125;SDS011;53956;52.442;13.284;2022-12-07T01:49:18;9.83;;;7.10;;
18125;SDS011;53956;52.442;13.284;2022-12-07T01:51:51;11.00;;;7.67;;
18125;SDS011;53956;52.442;13.284;2022-12-07T01:54:21;10.17;;;7.73;;
18125;SDS011;53956;52.442;13.284;2022-12-07T01:56:50;10.87;;;7.80;;
18125;SDS011;53956;52.442;13.284;2022-12-07T01:59:21;10.37;;;7.50;;
18125;SDS011;53956;52.442;13.284;2022-12-07T02:01:50;12.33;;;7.93;;
18125;SDS011;53956;52.442;13.284;2022-12-07T02:04:18;10.80;;;8.30;;
18125;SDS011;53956;52.442;13.284;2022-12-07T02:06:45;9.47;;;7.57;;
18125;SDS011;53956;52.442;13.284;2022-12-07T02:09:12;10.57;;;8.30;;
18125;SDS011;53956;52.442;13.284;2022-12-07T02:11:39;10.83;;;8.17;;
18125;SDS011;53956;52.442;13.284;2022-12-07T02:14:08;9.70;;;7.97;;
18125;SDS011;53956;52.442;13.284;2022-12-07T02:16:36;10.63;;;8.13;;
18125;SDS011;53956;52.442;13.284;2022-12-07T02:19:20;9.73;;;7.33;;
18125;SDS011;53956;52.442;13.284;2022-12-07T02:22:07;12.13;;;7.80;;
18125;SDS011;53956;52.442;13.284;2022-12-07T02:24:52;10.40;;;8.03;;
18125;SDS011;53956;52.442;13.284;2022-12-07T02:27:34;11.17;;;8.17;;
18125;SDS011;53956;52.442;13.284;2022-12-07T02:30:13;10.70;;;8.10;;
18125;SDS011;53956;52.442;13.284;2022-12-07T02:32:42;10.83;;;7.97;;
18125;SDS011;53956;52.442;13.284;2022-12-07T02:35:15;11.77;;;7.90;;
18125;SDS011;53956;52.442;13.284;2022-12-07T02:37:48;11.00;;;8.20;;
18125;SDS011;53956;52.442;13.284;2022-12-07T02:40:22;11.37;;;8.73;;
18125;SDS011;53956;52.442;13.284;2022-12-07T02:42:55;11.20;;;8.50;;
18125;SDS011;53956;52.442;13.284;2022-12-07T02:45:29;9.67;;;7.90;;
18125;SDS011;53956;52.442;13.284;2022-12-07T02:47:58;11.20;;;8.30;;
18125;SDS011;53956;52.442;13.284;2022-12-07T02:50:26;9.53;;;7.63;;
18125;SDS011;53956;52.442;13.284;2022-12-07T02:52:54;10.97;;;8.27;;
18125;SDS011;53956;52.442;13.284;2022-12-07T02:55:22;11.47;;;8.37;;
18125;SDS011;53956;52.442;13.284;2022-12-07T02:57:59;13.13;;;8.80;;
18125;SDS011;53956;52.442;13.284;2022-12-07T03:00:37;10.70;;;8.10;;
18125;SDS011;53956;52.442;13.284;2022-12-07T03:03:12;10.70;;;7.90;;
18125;SDS011;53956;52.442;13.284;2022-12-07T03:05:45;11.30;;;7.93;;
18125;SDS011;53956;52.442;13.284;2022-12-07T03:08:24;10.23;;;8.23;;
18125;SDS011;53956;52.442;13.284;2022-12-07T03:10:57;11.23;;;8.33;;
18125;SDS011;53956;52.442;13.284;2022-12-07T03:13:28;12.40;;;8.27;;
18125;SDS011;53956;52.442;13.284;2022-12-07T03:16:02;11.83;;;8.90;;
18125;SDS011;53956;52.442;13.284;2022-12-07T03:18:36;12.23;;;9.00;;
18125;SDS011;53956;52.442;13.284;2022-12-07T03:21:08;13.30;;;9.00;;
18125;SDS011;53956;52.442;13.284;2022-12-07T03:23:43;12.30;;;9.00;;
18125;SDS011;53956;52.442;13.284;2022-12-07T03:26:13;12.93;;;8.57;;
18125;SDS011;53956;52.442;13.284;2022-12-07T03:28:44;12.83;;;8.73;;
18125;SDS011;53956;52.442;13.284;2022-12-07T03:31:16;12.50;;;8.23;;
18125;SDS011;53956;52.442;13.284;2022-12-07T03:33:47;13.60;;;8.53;;
18125;SDS011;53956;52.442;13.284;2022-12-07T03:36:19;11.13;;;8.33;;
18125;SDS011;53956;52.442;13.284;2022-12-07T03:38:49;11.87;;;8.67;;
18125;SDS011;53956;52.442;13.284;2022-12-07T03:41:22;13.40;;;9.10;;
18125;SDS011;53956;52.442;13.284;2022-12-07T03:43:51;13.53;;;9.33;;
18125;SDS011;53956;52.442;13.284;2022-12-07T03:46:22;14.43;;;8.83;;
18125;SDS011;53956;52.442;13.284;2022-12-07T03:48:54;14.40;;;9.17;;
18125;SDS011;53956;52.442;13.284;2022-12-07T03:51:26;15.87;;;9.47;;
18125;SDS011;53956;52.442;13.284;2022-12-07T03:54:00;14.57;;;9.80;;
18125;SDS011;53956;52.442;13.284;2022-12-07T03:56:33;14.37;;;9.60;;
18125;SDS011;53956;52.442;13.284;2022-12-07T03:59:01;15.97;;;10.43;;
18125;SDS011;53956;52.442;13.284;2022-12-07T04:01:29;13.17;;;9.27;;
18125;SDS011;53956;52.442;13.284;2022-12-07T04:03:55;15.80;;;10.37;;
18125;SDS011;53956;52.442;13.284;2022-12-07T04:06:22;14.33;;;9.63;;
18125;SDS011;53956;52.442;13.284;2022-12-07T04:08:48;15.67;;;10.87;;
18125;SDS011;53956;52.442;13.284;2022-12-07T04:11:15;17.53;;;11.17;;
18125;SDS011;53956;52.442;13.284;2022-12-07T04:13:42;16.47;;;11.10;;
18125;SDS011;53956;52.442;13.284;2022-12-07T04:16:26;19.10;;;12.17;;
18125;SDS011;53956;52.442;13.284;2022-12-07T04:18:54;19.70;;;11.07;;
18125;SDS011;53956;52.442;13.284;2022-12-07T04:21:20;17.70;;;11.53;;
18125;SDS011;53956;52.442;13.284;2022-12-07T04:23:47;18.67;;;11.83;;
18125;SDS011;53956;52.442;13.284;2022-12-07T04:26:14;21.53;;;12.90;;
18125;SDS011;53956;52.442;13.284;2022-12-07T04:28:40;19.63;;;12.30;;
18125;SDS011;53956;52.442;13.284;2022-12-07T04:31:07;22.30;;;13.93;;
18125;SDS011;53956;52.442;13.284;2022-12-07T04:33:34;21.67;;;13.43;;
18125;SDS011;53956;52.442;13.284;2022-12-07T04:36:03;23.43;;;13.90;;
18125;SDS011;53956;52.442;13.284;2022-12-07T04:38:30;23.80;;;14.13;;
18125;SDS011;53956;52.442;13.284;2022-12-07T04:40:57;22.97;;;13.53;;
18125;SDS011;53956;52.442;13.284;2022-12-07T04:43:23;20.40;;;13.20;;
18125;SDS011;53956;52.442;13.284;2022-12-07T04:45:50;24.97;;;15.43;;
18125;SDS011;53956;52.442;13.284;2022-12-07T04:48:16;24.77;;;14.90;;
18125;SDS011;53956;52.442;13.284;2022-12-07T04:50:43;26.70;;;15.10;;
18125;SDS011;53956;52.442;13.284;2022-12-07T04:53:11;25.77;;;15.50;;
18125;SDS011;53956;52.442;13.284;2022-12-07T04:55:38;24.30;;;14.83;;
18125;SDS011;53956;52.442;13.284;2022-12-07T04:58:04;27.47;;;16.03;;
18125;SDS011;53956;52.442;13.284;2022-12-07T05:00:31;28.70;;;16.10;;
18125;SDS011;53956;52.442;13.284;2022-12-07T05:02:58;27.43;;;16.17;;
18125;SDS011;53956;52.442;13.284;2022-12-07T05:05:24;27.63;;;16.17;;
18125;SDS011;53956;52.442;13.284;2022-12-07T05:07:51;28.33;;;16.97;;
18125;SDS011;53956;52.442;13.284;2022-12-07T05:10:19;26.13;;;16.17;;
18125;SDS011;53956;52.442;13.284;2022-12-07T05:12:46;30.20;;;17.07;;
18125;SDS011;53956;52.442;13.284;2022-12-07T05:15:13;29.27;;;16.23;;
18125;SDS011;53956;52.442;13.284;2022-12-07T05:17:40;25.93;;;16.33;;
18125;SDS011;53956;52.442;13.284;2022-12-07T05:20:07;29.20;;;16.80;;
18125;SDS011;53956;52.442;13.284;2022-12-07T05:22:35;32.10;;;19.20;;
18125;SDS011;53956;52.442;13.284;2022-12-07T05:25:01;29.37;;;16.83;;
18125;SDS011;53956;52.442;13.284;2022-12-07T05:27:30;31.40;;;18.13;;
18125;SDS011;53956;52.442;13.284;2022-12-07T05:29:56;30.33;;;17.43;;
18125;SDS011;53956;52.442;13.284;2022-12-07T05:32:23;29.47;;;16.83;;
18125;SDS011;53956;52.442;13.284;2022-12-07T05:34:49;31.00;;;17.40;;
18125;SDS011;53956;52.442;13.284;2022-12-07T05:37:16;29.57;;;16.90;;
18125;SDS011;53956;52.442;13.284;2022-12-07T05:39:43;31.00;;;18.17;;
18125;SDS011;53956;52.442;13.284;2022-12-07T05:42:10;31.73;;;18.20;;
18125;SDS011;53956;52.442;13.284;2022-12-07T05:44:41;31.30;;;18.30;;
18125;SDS011;53956;52.442;13.284;2022-12-07T05:47:09;35.33;;;19.60;;
18125;SDS011;53956;52.442;13.284;2022-12-07T05:49:36;32.97;;;18.27;;
18125;SDS011;53956;52.442;13.284;2022-12-07T05:52:03;33.20;;;18.90;;
18125;SDS011;53956;52.442;13.284;2022-12-07T05:54:30;33.03;;;18.63;;
18125;SDS011;53956;52.442;13.284;2022-12-07T05:56:57;33.63;;;19.33;;
18125;SDS011;53956;52.442;13.284;2022-12-07T05:59:23;37.70;;;19.70;;
18125;SDS011;53956;52.442;13.284;2022-12-07T06:01:51;35.40;;;18.77;;
18125;SDS011;53956;52.442;13.284;2022-12-07T06:04:19;34.73;;;20.03;;
18125;SDS011;53956;52.442;13.284;2022-12-07T06:06:46;34.53;;;19.30;;
18125;SDS011;53956;52.442;13.284;2022-12-07T06:09:13;38.20;;;20.30;;
18125;SDS011;53956;52.442;13.284;2022-12-07T06:11:40;36.73;;;20.37;;
18125;SDS011;53956;52.442;13.284;2022-12-07T06:14:24;34.53;;;19.13;;
18125;SDS011;53956;52.442;13.284;2022-12-07T06:16:52;37.70;;;20.30;;
18125;SDS011;53956;52.442;13.284;2022-12-07T06:19:19;36.20;;;20.17;;
18125;SDS011;53956;52.442;13.284;2022-12-07T06:21:46;41.43;;;21.33;;
18125;SDS011;53956;52.442;13.284;2022-12-07T06:24:13;38.03;;;20.93;;
18125;SDS011;53956;52.442;13.284;2022-12-07T06:26:40;34.80;;;19.90;;
18125;SDS011;53956;52.442;13.284;2022-12-07T06:29:08;37.07;;;20.93;;
18125;SDS011;53956;52.442;13.284;2022-12-07T06:31:35;36.20;;;20.40;;
18125;SDS011;53956;52.442;13.284;2022-12-07T06:34:04;35.43;;;19.83;;
18125;SDS011;53956;52.442;13.284;2022-12-07T06:36:32;36.83;;;20.70;;
18125;SDS011;53956;52.442;13.284;2022-12-07T06:38:59;38.00;;;20.77;;
18125;SDS011;53956;52.442;13.284;2022-12-07T06:41:26;37.73;;;20.03;;
18125;SDS011;53956;52.442;13.284;2022-12-07T06:43:53;37.97;;;21.13;;
18125;SDS011;53956;52.442;13.284;2022-12-07T06:46:20;38.70;;;20.83;;
18125;SDS011;53956;52.442;13.284;2022-12-07T06:48:46;41.03;;;21.63;;
18125;SDS011;53956;52.442;13.284;2022-12-07T06:51:14;41.17;;;21.37;;
18125;SDS011;53956;52.442;13.284;2022-12-07T06:53:41;38.93;;;21.70;;
18125;SDS011;53956;52.442;13.284;2022-12-07T06:56:08;38.23;;;20.30;;
18125;SDS011;53956;52.442;13.284;2022-12-07T06:58:34;37.57;;;20.70;;
18125;SDS011;53956;52.442;13.284;2022-12-07T07:01:01;38.93;;;20.63;;
18125;SDS011;53956;52.442;13.284;2022-12-07T07:03:28;39.30;;;21.60;;
18125;SDS011;53956;52.442;13.284;2022-12-07T07:05:55;36.77;;;20.13;;
18125;SDS011;53956;52.442;13.284;2022-12-07T07:08:23;38.77;;;21.23;;
18125;SDS011;53956;52.442;13.284;2022-12-07T07:10:49;34.57;;;20.63;;
18125;SDS011;53956;52.442;13.284;2022-12-07T07:13:16;37.60;;;19.43;;
18125;SDS011;53956;52.442;13.284;2022-12-07T07:15:43;36.10;;;20.13;;
18125;SDS011;53956;52.442;13.284;2022-12-07T07:18:10;36.37;;;19.80;;
18125;SDS011;53956;52.442;13.284;2022-12-07T07:20:37;38.83;;;19.43;;
18125;SDS011;53956;52.442;13.284;2022-12-07T07:23:04;35.47;;;20.10;;
18125;SDS011;53956;52.442;13.284;2022-12-07T07:25:32;35.20;;;19.03;;
18125;SDS011;53956;52.442;13.284;2022-12-07T07:27:59;35.43;;;18.73;;
18125;SDS011;53956;52.442;13.284;2022-12-07T07:30:26;35.50;;;19.80;;
18125;SDS011;53956;52.442;13.284;2022-12-07T07:32:55;32.37;;;18.70;;
18125;SDS011;53956;52.442;13.284;2022-12-07T07:35:22;32.80;;;18.43;;
18125;SDS011;53956;52.442;13.284;2022-12-07T07:37:49;31.93;;;19.07;;
18125;SDS011;53956;52.442;13.284;2022-12-07T07:40:16;36.50;;;19.23;;
18125;SDS011;53956;52.442;13.284;2022-12-07T07:42:46;31.30;;;17.70;;
18125;SDS011;53956;52.442;13.284;2022-12-07T07:45:13;31.97;;;17.90;;
18125;SDS011;53956;52.442;13.284;2022-12-07T07:47:40;32.57;;;17.97;;
18125;SDS011;53956;52.442;13.284;2022-12-07T07:50:06;29.03;;;16.90;;
18125;SDS011;53956;52.442;13.284;2022-12-07T07:52:34;25.07;;;14.43;;
18125;SDS011;53956;52.442;13.284;2022-12-07T07:55:00;25.90;;;15.27;;
18125;SDS011;53956;52.442;13.284;2022-12-07T07:57:27;25.37;;;14.77;;
18125;SDS011;53956;52.442;13.284;2022-12-07T07:59:55;25.83;;;14.70;;
18125;SDS011;53956;52.442;13.284;2022-12-07T08:02:22;26.53;;;14.47;;
18125;SDS011;53956;52.442;13.284;2022-12-07T08:04:49;25.43;;;14.27;;
18125;SDS011;53956;52.442;13.284;2022-12-07T08:07:16;24.57;;;13.83;;
18125;SDS011;53956;52.442;13.284;2022-12-07T08:09:42;22.47;;;13.10;;
18125;SDS011;53956;52.442;13.284;2022-12-07T08:12:09;22.87;;;13.40;;
18125;SDS011;53956;52.442;13.284;2022-12-07T08:14:35;22.90;;;13.03;;
18125;SDS011;53956;52.442;13.284;2022-12-07T08:17:04;22.83;;;13.60;;
18125;SDS011;53956;52.442;13.284;2022-12-07T08:19:30;21.03;;;11.97;;
18125;SDS011;53956;52.442;13.284;2022-12-07T08:21:57;13.93;;;9.63;;
18125;SDS011;53956;52.442;13.284;2022-12-07T08:24:24;16.77;;;10.23;;
18125;SDS011;53956;52.442;13.284;2022-12-07T08:26:51;15.77;;;9.97;;
18125;SDS011;53956;52.442;13.284;2022-12-07T08:29:17;13.63;;;8.90;;
18125;SDS011;53956;52.442;13.284;2022-12-07T08:31:44;14.67;;;9.07;;
18125;SDS011;53956;52.442;13.284;2022-12-07T08:34:12;13.73;;;8.03;;
18125;SDS011;53956;52.442;13.284;2022-12-07T08:36:39;12.20;;;8.10;;
18125;SDS011;53956;52.442;13.284;2022-12-07T08:39:06;13.37;;;8.00;;
18125;SDS011;53956;52.442;13.284;2022-12-07T08:41:33;14.53;;;8.17;;
18125;SDS011;53956;52.442;13.284;2022-12-07T08:44:00;10.20;;;7.10;;
18125;SDS011;53956;52.442;13.284;2022-12-07T08:46:28;9.83;;;7.30;;
18125;SDS011;53956;52.442;13.284;2022-12-07T08:49:02;10.70;;;7.10;;
18125;SDS011;53956;52.442;13.284;2022-12-07T08:51:32;10.17;;;7.63;;
18125;SDS011;53956;52.442;13.284;2022-12-07T08:54:00;9.37;;;6.63;;
18125;SDS011;53956;52.442;13.284;2022-12-07T08:56:29;9.23;;;6.77;;
18125;SDS011;53956;52.442;13.284;2022-12-07T08:58:56;6.50;;;5.53;;
18125;SDS011;53956;52.442;13.284;2022-12-07T09:01:23;6.67;;;5.60;;
18125;SDS011;53956;52.442;13.284;2022-12-07T09:03:50;6.67;;;5.30;;
18125;SDS011;53956;52.442;13.284;2022-12-07T09:06:17;6.97;;;5.43;;
18125;SDS011;53956;52.442;13.284;2022-12-07T09:08:46;5.90;;;5.00;;
18125;SDS011;53956;52.442;13.284;2022-12-07T09:11:15;5.83;;;4.93;;
18125;SDS011;53956;52.442;13.284;2022-12-07T09:13:42;6.70;;;4.90;;
18125;SDS011;53956;52.442;13.284;2022-12-07T09:16:09;4.97;;;4.40;;
18125;SDS011;53956;52.442;13.284;2022-12-07T09:18:35;4.80;;;4.30;;
18125;SDS011;53956;52.442;13.284;2022-12-07T09:21:03;4.80;;;4.30;;
18125;SDS011;53956;52.442;13.284;2022-12-07T09:23:30;4.40;;;4.00;;
18125;SDS011;53956;52.442;13.284;2022-12-07T09:25:59;5.10;;;4.30;;
18125;SDS011;53956;52.442;13.284;2022-12-07T09:28:26;4.67;;;4.27;;
18125;SDS011;53956;52.442;13.284;2022-12-07T09:30:53;5.40;;;4.37;;
18125;SDS011;53956;52.442;13.284;2022-12-07T09:33:20;4.60;;;4.20;;
18125;SDS011;53956;52.442;13.284;2022-12-07T09:35:47;4.60;;;4.20;;
18125;SDS011;53956;52.442;13.284;2022-12-07T09:38:15;4.63;;;4.23;;
18125;SDS011;53956;52.442;13.284;2022-12-07T09:40:42;4.43;;;4.03;;
18125;SDS011;53956;52.442;13.284;2022-12-07T09:43:13;6.87;;;4.37;;
18125;SDS011;53956;52.442;13.284;2022-12-07T09:45:41;4.93;;;4.43;;
18125;SDS011;53956;52.442;13.284;2022-12-07T09:48:12;4.77;;;4.30;;
18125;SDS011;53956;52.442;13.284;2022-12-07T09:50:43;5.07;;;3.93;;
18125;SDS011;53956;52.442;13.284;2022-12-07T09:53:13;7.00;;;4.40;;
18125;SDS011;53956;52.442;13.284;2022-12-07T09:55:43;4.57;;;4.00;;
18125;SDS011;53956;52.442;13.284;2022-12-07T09:58:13;4.43;;;4.03;;
18125;SDS011;53956;52.442;13.284;2022-12-07T10:00:46;4.57;;;4.17;;
18125;SDS011;53956;52.442;13.284;2022-12-07T10:03:13;5.03;;;4.13;;
18125;SDS011;53956;52.442;13.284;2022-12-07T10:05:40;4.70;;;3.90;;
18125;SDS011;53956;52.442;13.284;2022-12-07T10:08:09;4.67;;;3.50;;
18125;SDS011;53956;52.442;13.284;2022-12-07T10:10:38;4.30;;;3.90;;
18125;SDS011;53956;52.442;13.284;2022-12-07T10:13:05;4.20;;;3.63;;
18125;SDS011;53956;52.442;13.284;2022-12-07T10:15:45;6.07;;;4.07;;
18125;SDS011;53956;52.442;13.284;2022-12-07T10:18:21;5.17;;;3.70;;
18125;SDS011;53956;52.442;13.284;2022-12-07T10:21:09;5.60;;;3.87;;
18125;SDS011;53956;52.442;13.284;2022-12-07T10:23:38;4.60;;;4.20;;
18125;SDS011;53956;52.442;13.284;2022-12-07T10:26:26;4.87;;;4.47;;
18125;SDS011;53956;52.442;13.284;2022-12-07T10:28:56;6.73;;;4.13;;
18125;SDS011;53956;52.442;13.284;2022-12-07T10:31:27;5.53;;;4.20;;
18125;SDS011;53956;52.442;13.284;2022-12-07T10:33:55;4.57;;;4.17;;
18125;SDS011;53956;52.442;13.284;2022-12-07T10:36:24;7.27;;;4.77;;
18125;SDS011;53956;52.442;13.284;2022-12-07T10:38:52;6.73;;;4.73;;
18125;SDS011;53956;52.442;13.284;2022-12-07T10:41:24;6.17;;;4.60;;
18125;SDS011;53956;52.442;13.284;2022-12-07T10:43:52;7.30;;;4.90;;
18125;SDS011;53956;52.442;13.284;2022-12-07T10:46:43;6.10;;;4.83;;
18125;SDS011;53956;52.442;13.284;2022-12-07T10:49:23;6.17;;;5.03;;
18125;SDS011;53956;52.442;13.284;2022-12-07T10:52:08;5.43;;;4.93;;
18125;SDS011;53956;52.442;13.284;2022-12-07T10:54:44;7.17;;;5.10;;
18125;SDS011;53956;52.442;13.284;2022-12-07T10:57:19;7.57;;;5.33;;
18125;SDS011;53956;52.442;13.284;2022-12-07T11:00:01;7.03;;;5.13;;
18125;SDS011;53956;52.442;13.284;2022-12-07T11:02:44;6.90;;;5.43;;
18125;SDS011;53956;52.442;13.284;2022-12-07T11:05:22;7.50;;;5.60;;
18125;SDS011;53956;52.442;13.284;2022-12-07T11:07:57;6.80;;;5.60;;
18125;SDS011;53956;52.442;13.284;2022-12-07T11:10:34;7.23;;;5.70;;
18125;SDS011;53956;52.442;13.284;2022-12-07T11:13:21;8.10;;;5.77;;
18125;SDS011;53956;52.442;13.284;2022-12-07T11:16:01;7.70;;;5.67;;
18125;SDS011;53956;52.442;13.284;2022-12-07T11:18:36;6.97;;;5.93;;
18125;SDS011;53956;52.442;13.284;2022-12-07T11:21:09;7.67;;;5.90;;
18125;SDS011;53956;52.442;13.284;2022-12-07T11:23:44;6.30;;;5.60;;
18125;SDS011;53956;52.442;13.284;2022-12-07T11:26:17;8.47;;;5.53;;
18125;SDS011;53956;52.442;13.284;2022-12-07T11:28:58;7.80;;;5.83;;
18125;SDS011;53956;52.442;13.284;2022-12-07T11:31:43;6.93;;;5.63;;
18125;SDS011;53956;52.442;13.284;2022-12-07T11:34:22;13.40;;;6.40;;
18125;SDS011;53956;52.442;13.284;2022-12-07T11:36:54;7.63;;;5.17;;
18125;SDS011;53956;52.442;13.284;2022-12-07T11:39:24;7.83;;;5.20;;
18125;SDS011;53956;52.442;13.284;2022-12-07T11:41:55;8.00;;;5.23;;
18125;SDS011;53956;52.442;13.284;2022-12-07T11:44:33;6.27;;;5.03;;
18125;SDS011;53956;52.442;13.284;2022-12-07T11:47:10;7.30;;;5.03;;
18125;SDS011;53956;52.442;13.284;2022-12-07T11:49:47;7.20;;;5.97;;
18125;SDS011;53956;52.442;13.284;2022-12-07T11:52:21;9.00;;;4.73;;
18125;SDS011;53956;52.442;13.284;2022-12-07T11:54:53;10.07;;;5.20;;
18125;SDS011;53956;52.442;13.284;2022-12-07T11:57:22;6.83;;;4.80;;
18125;SDS011;53956;52.442;13.284;2022-12-07T11:59:56;6.13;;;4.50;;
18125;SDS011;53956;52.442;13.284;2022-12-07T12:02:31;6.37;;;4.47;;
18125;SDS011;53956;52.442;13.284;2022-12-07T12:05:05;7.80;;;4.80;;
18125;SDS011;53956;52.442;13.284;2022-12-07T12:07:39;8.10;;;5.03;;
18125;SDS011;53956;52.442;13.284;2022-12-07T12:10:13;6.77;;;5.07;;
18125;SDS011;53956;52.442;13.284;2022-12-07T12:12:47;9.50;;;4.70;;
18125;SDS011;53956;52.442;13.284;2022-12-07T12:15:36;6.63;;;5.07;;
18125;SDS011;53956;52.442;13.284;2022-12-07T12:18:15;6.10;;;5.27;;
18125;SDS011;53956;52.442;13.284;2022-12-07T12:21:00;7.53;;;4.90;;
18125;SDS011;53956;52.442;13.284;2022-12-07T12:23:34;11.37;;;4.87;;
18125;SDS011;53956;52.442;13.284;2022-12-07T12:26:05;6.20;;;4.60;;
18125;SDS011;53956;52.442;13.284;2022-12-07T12:28:35;6.37;;;5.10;;
18125;SDS011;53956;52.442;13.284;2022-12-07T12:31:07;8.20;;;5.37;;
18125;SDS011;53956;52.442;13.284;2022-12-07T12:33:38;9.00;;;5.50;;
18125;SDS011;53956;52.442;13.284;2022-12-07T12:36:18;8.43;;;4.87;;
18125;SDS011;53956;52.442;13.284;2022-12-07T12:38:48;8.30;;;4.87;;
18125;SDS011;53956;52.442;13.284;2022-12-07T12:47:54;7.23;;;5.10;;
18125;SDS011;53956;52.442;13.284;2022-12-07T12:50:23;7.83;;;4.73;;
18125;SDS011;53956;52.442;13.284;2022-12-07T12:52:54;6.83;;;4.37;;
18125;SDS011;53956;52.442;13.284;2022-12-07T12:55:30;6.23;;;4.57;;
18125;SDS011;53956;52.442;13.284;2022-12-07T12:58:41;5.93;;;4.43;;
18125;SDS011;53956;52.442;13.284;2022-12-07T13:10:24;6.80;;;4.03;;
18125;SDS011;53956;52.442;13.284;2022-12-07T13:12:59;10.00;;;4.27;;
18125;SDS011;53956;52.442;13.284;2022-12-07T13:15:32;9.90;;;4.60;;
18125;SDS011;53956;52.442;13.284;2022-12-07T13:18:01;9.07;;;3.97;;
18125;SDS011;53956;52.442;13.284;2022-12-07T13:20:40;10.43;;;3.97;;
18125;SDS011;53956;52.442;13.284;2022-12-07T13:23:18;8.73;;;3.73;;
18125;SDS011;53956;52.442;13.284;2022-12-07T13:25:51;6.97;;;3.60;;
18125;SDS011;53956;52.442;13.284;2022-12-07T13:28:23;7.73;;;3.50;;
18125;SDS011;53956;52.442;13.284;2022-12-07T13:31:04;5.80;;;3.70;;
18125;SDS011;53956;52.442;13.284;2022-12-07T13:33:38;7.20;;;3.57;;
18125;SDS011;53956;52.442;13.284;2022-12-07T13:36:10;5.67;;;3.97;;
18125;SDS011;53956;52.442;13.284;2022-12-07T13:38:48;5.93;;;3.90;;
18125;SDS011;53956;52.442;13.284;2022-12-07T13:41:19;6.20;;;3.63;;
18125;SDS011;53956;52.442;13.284;2022-12-07T13:43:49;7.97;;;3.83;;
18125;SDS011;53956;52.442;13.284;2022-12-07T13:46:19;6.40;;;3.70;;
18125;SDS011;53956;52.442;13.284;2022-12-07T13:48:52;8.13;;;4.37;;
18125;SDS011;53956;52.442;13.284;2022-12-07T13:51:20;9.90;;;4.20;;
18125;SDS011;53956;52.442;13.284;2022-12-07T13:53:50;7.97;;;4.10;;
18125;SDS011;53956;52.442;13.284;2022-12-07T13:56:22;11.00;;;4.23;;
18125;SDS011;53956;52.442;13.284;2022-12-07T13:58:54;8.57;;;3.70;;
18125;SDS011;53956;52.442;13.284;2022-12-07T14:01:21;6.57;;;3.90;;
18125;SDS011;53956;52.442;13.284;2022-12-07T14:03:48;5.67;;;4.20;;
18125;SDS011;53956;52.442;13.284;2022-12-07T14:06:16;6.00;;;3.90;;
18125;SDS011;53956;52.442;13.284;2022-12-07T14:08:46;7.87;;;4.30;;
18125;SDS011;53956;52.442;13.284;2022-12-07T14:11:14;9.27;;;4.33;;
18125;SDS011;53956;52.442;13.284;2022-12-07T14:13:57;7.57;;;4.10;;
18125;SDS011;53956;52.442;13.284;2022-12-07T14:16:27;8.90;;;4.20;;
18125;SDS011;53956;52.442;13.284;2022-12-07T14:18:55;7.00;;;4.20;;
18125;SDS011;53956;52.442;13.284;2022-12-07T14:21:23;6.13;;;4.10;;
18125;SDS011;53956;52.442;13.284;2022-12-07T14:26:44;6.70;;;3.97;;
18125;SDS011;53956;52.442;13.284;2022-12-07T14:32:17;11.57;;;4.60;;
18125;SDS011;53956;52.442;13.284;2022-12-07T14:34:57;7.23;;;4.27;;
18125;SDS011;53956;52.442;13.284;2022-12-07T14:37:26;8.10;;;4.33;;
18125;SDS011;53956;52.442;13.284;2022-12-07T14:39:54;7.17;;;4.43;;
18125;SDS011;53956;52.442;13.284;2022-12-07T14:42:20;9.03;;;4.10;;
18125;SDS011;53956;52.442;13.284;2022-12-07T14:44:52;5.70;;;4.00;;
18125;SDS011;53956;52.442;13.284;2022-12-07T14:47:18;9.17;;;4.57;;
18125;SDS011;53956;52.442;13.284;2022-12-07T14:49:45;7.33;;;4.20;;
18125;SDS011;53956;52.442;13.284;2022-12-07T14:52:13;8.80;;;4.63;;
18125;SDS011;53956;52.442;13.284;2022-12-07T14:54:42;8.40;;;4.30;;
18125;SDS011;53956;52.442;13.284;2022-12-07T14:57:09;12.40;;;4.63;;
18125;SDS011;53956;52.442;13.284;2022-12-07T14:59:36;9.20;;;3.97;;
18125;SDS011;53956;52.442;13.284;2022-12-07T15:02:05;10.37;;;4.10;;
18125;SDS011;53956;52.442;13.284;2022-12-07T15:04:32;8.03;;;3.93;;